Terminal Aerodrome Forecast
Issued by NWS Cleveland, OH

Home | Current Version | Previous Version | Graphics & Text | Print | Product List | Glossary On
Versions: 1 2 3 4 5 6 7 8 9 10 11 12 13 14 15 16 17 18 19 20 21 22 23 24 25 26 27 28 29
890
FTUS41 KCLE 021408 AAB
TAFCLE
TAF AMD
KCLE 021408Z 0214/0318 24012KT P6SM OVC025
      TEMPO 0214/0218 SCT025 OVC035
     FM021800 27014G22KT P6SM VCSH BKN025
     FM030200 27010KT P6SM BKN020=

USA.gov is the U.S. government's official web portal to all federal, state and local government web resources and services.